sensor_id;sensor_type;location;lat;lon;timestamp;P1;durP1;ratioP1;P2;durP2;ratioP2
8716;SDS011;4395;48.554;8.820;2024-03-02T00:01:59;13.25;;;9.98;;
8716;SDS011;4395;48.554;8.820;2024-03-02T00:04:03;17.08;;;11.10;;
8716;SDS011;4395;48.554;8.820;2024-03-02T00:06:08;18.48;;;12.43;;
8716;SDS011;4395;48.554;8.820;2024-03-02T00:08:11;16.38;;;11.70;;
8716;SDS011;4395;48.554;8.820;2024-03-02T00:10:16;15.20;;;11.80;;
8716;SDS011;4395;48.554;8.820;2024-03-02T00:12:22;15.45;;;11.68;;
8716;SDS011;4395;48.554;8.820;2024-03-02T00:14:25;11.68;;;9.68;;
8716;SDS011;4395;48.554;8.820;2024-03-02T00:16:29;11.75;;;9.25;;
8716;SDS011;4395;48.554;8.820;2024-03-02T00:18:34;12.13;;;8.88;;
8716;SDS011;4395;48.554;8.820;2024-03-02T00:20:38;10.07;;;8.00;;
8716;SDS011;4395;48.554;8.820;2024-03-02T00:22:39;11.50;;;9.23;;
8716;SDS011;4395;48.554;8.820;2024-03-02T00:24:43;12.13;;;9.75;;
8716;SDS011;4395;48.554;8.820;2024-03-02T00:26:46;11.32;;;9.20;;
8716;SDS011;4395;48.554;8.820;2024-03-02T00:28:49;12.32;;;9.48;;
8716;SDS011;4395;48.554;8.820;2024-03-02T00:31:01;11.80;;;9.40;;
8716;SDS011;4395;48.554;8.820;2024-03-02T00:33:05;9.80;;;8.55;;
8716;SDS011;4395;48.554;8.820;2024-03-02T00:35:09;12.00;;;10.02;;
8716;SDS011;4395;48.554;8.820;2024-03-02T00:37:12;11.82;;;9.70;;
8716;SDS011;4395;48.554;8.820;2024-03-02T00:39:16;11.65;;;9.23;;
8716;SDS011;4395;48.554;8.820;2024-03-02T00:41:22;12.93;;;9.35;;
8716;SDS011;4395;48.554;8.820;2024-03-02T00:43:39;12.45;;;9.50;;
8716;SDS011;4395;48.554;8.820;2024-03-02T00:45:48;13.50;;;9.85;;
8716;SDS011;4395;48.554;8.820;2024-03-02T00:47:51;13.60;;;10.00;;
8716;SDS011;4395;48.554;8.820;2024-03-02T00:49:54;11.43;;;9.20;;
8716;SDS011;4395;48.554;8.820;2024-03-02T00:51:57;12.77;;;10.25;;
8716;SDS011;4395;48.554;8.820;2024-03-02T00:54:00;12.25;;;9.45;;
8716;SDS011;4395;48.554;8.820;2024-03-02T00:56:06;11.70;;;9.82;;
8716;SDS011;4395;48.554;8.820;2024-03-02T00:58:12;11.02;;;9.40;;
8716;SDS011;4395;48.554;8.820;2024-03-02T01:00:15;13.85;;;9.93;;
8716;SDS011;4395;48.554;8.820;2024-03-02T01:02:19;11.65;;;9.45;;
8716;SDS011;4395;48.554;8.820;2024-03-02T01:04:22;11.73;;;9.70;;
8716;SDS011;4395;48.554;8.820;2024-03-02T01:06:25;13.07;;;10.30;;
8716;SDS011;4395;48.554;8.820;2024-03-02T01:08:28;13.27;;;9.75;;
8716;SDS011;4395;48.554;8.820;2024-03-02T01:10:30;14.95;;;10.40;;
8716;SDS011;4395;48.554;8.820;2024-03-02T01:12:33;11.27;;;9.27;;
8716;SDS011;4395;48.554;8.820;2024-03-02T01:14:37;11.57;;;9.32;;
8716;SDS011;4395;48.554;8.820;2024-03-02T01:16:40;12.10;;;9.65;;
8716;SDS011;4395;48.554;8.820;2024-03-02T01:18:43;13.57;;;10.13;;
8716;SDS011;4395;48.554;8.820;2024-03-02T01:20:46;12.10;;;9.95;;
8716;SDS011;4395;48.554;8.820;2024-03-02T01:22:48;10.55;;;9.05;;
8716;SDS011;4395;48.554;8.820;2024-03-02T01:24:50;11.75;;;9.60;;
8716;SDS011;4395;48.554;8.820;2024-03-02T01:26:54;11.73;;;9.68;;
8716;SDS011;4395;48.554;8.820;2024-03-02T01:28:58;13.13;;;9.88;;
8716;SDS011;4395;48.554;8.820;2024-03-02T01:31:02;12.25;;;9.82;;
8716;SDS011;4395;48.554;8.820;2024-03-02T01:33:05;15.80;;;9.77;;
8716;SDS011;4395;48.554;8.820;2024-03-02T01:35:07;13.57;;;9.95;;
8716;SDS011;4395;48.554;8.820;2024-03-02T01:37:10;11.15;;;8.73;;
8716;SDS011;4395;48.554;8.820;2024-03-02T01:39:13;12.13;;;9.63;;
8716;SDS011;4395;48.554;8.820;2024-03-02T01:41:16;12.52;;;10.15;;
8716;SDS011;4395;48.554;8.820;2024-03-02T01:43:19;12.35;;;9.63;;
8716;SDS011;4395;48.554;8.820;2024-03-02T01:45:21;11.68;;;9.52;;
8716;SDS011;4395;48.554;8.820;2024-03-02T01:47:25;13.02;;;10.50;;
8716;SDS011;4395;48.554;8.820;2024-03-02T01:49:27;15.68;;;11.50;;
8716;SDS011;4395;48.554;8.820;2024-03-02T01:51:30;13.85;;;10.20;;
8716;SDS011;4395;48.554;8.820;2024-03-02T01:53:33;13.95;;;10.57;;
8716;SDS011;4395;48.554;8.820;2024-03-02T01:55:36;13.50;;;10.50;;
8716;SDS011;4395;48.554;8.820;2024-03-02T01:57:38;13.48;;;10.02;;
8716;SDS011;4395;48.554;8.820;2024-03-02T01:59:41;15.05;;;11.00;;
8716;SDS011;4395;48.554;8.820;2024-03-02T02:01:44;14.90;;;11.05;;
8716;SDS011;4395;48.554;8.820;2024-03-02T02:03:48;15.18;;;11.35;;
8716;SDS011;4395;48.554;8.820;2024-03-02T02:05:51;13.73;;;10.35;;
8716;SDS011;4395;48.554;8.820;2024-03-02T02:07:54;14.65;;;11.20;;
8716;SDS011;4395;48.554;8.820;2024-03-02T02:09:59;13.25;;;11.02;;
8716;SDS011;4395;48.554;8.820;2024-03-02T02:12:03;15.27;;;10.68;;
8716;SDS011;4395;48.554;8.820;2024-03-02T02:14:08;14.45;;;10.75;;
8716;SDS011;4395;48.554;8.820;2024-03-02T02:16:11;13.77;;;11.68;;
8716;SDS011;4395;48.554;8.820;2024-03-02T02:18:14;14.60;;;11.07;;
8716;SDS011;4395;48.554;8.820;2024-03-02T02:20:18;15.30;;;12.02;;
8716;SDS011;4395;48.554;8.820;2024-03-02T02:22:22;15.60;;;11.30;;
8716;SDS011;4395;48.554;8.820;2024-03-02T02:24:25;14.85;;;11.05;;
8716;SDS011;4395;48.554;8.820;2024-03-02T02:26:28;16.00;;;11.85;;
8716;SDS011;4395;48.554;8.820;2024-03-02T02:28:31;14.40;;;11.52;;
8716;SDS011;4395;48.554;8.820;2024-03-02T02:30:32;13.73;;;11.35;;
8716;SDS011;4395;48.554;8.820;2024-03-02T02:32:36;15.10;;;12.18;;
8716;SDS011;4395;48.554;8.820;2024-03-02T02:34:39;16.55;;;12.38;;
8716;SDS011;4395;48.554;8.820;2024-03-02T02:36:42;16.40;;;12.07;;
8716;SDS011;4395;48.554;8.820;2024-03-02T02:38:46;14.75;;;11.30;;
8716;SDS011;4395;48.554;8.820;2024-03-02T02:40:51;16.15;;;11.35;;
8716;SDS011;4395;48.554;8.820;2024-03-02T02:42:54;14.13;;;11.55;;
8716;SDS011;4395;48.554;8.820;2024-03-02T02:44:56;12.82;;;10.85;;
8716;SDS011;4395;48.554;8.820;2024-03-02T02:46:58;15.88;;;10.68;;
8716;SDS011;4395;48.554;8.820;2024-03-02T02:49:01;15.85;;;11.18;;
8716;SDS011;4395;48.554;8.820;2024-03-02T02:51:04;13.15;;;10.93;;
8716;SDS011;4395;48.554;8.820;2024-03-02T02:53:07;14.80;;;11.73;;
8716;SDS011;4395;48.554;8.820;2024-03-02T02:55:12;15.85;;;11.48;;
8716;SDS011;4395;48.554;8.820;2024-03-02T02:57:17;14.40;;;11.52;;
8716;SDS011;4395;48.554;8.820;2024-03-02T02:59:19;14.50;;;10.95;;
8716;SDS011;4395;48.554;8.820;2024-03-02T03:01:22;15.95;;;11.63;;
8716;SDS011;4395;48.554;8.820;2024-03-02T03:03:25;14.95;;;11.48;;
8716;SDS011;4395;48.554;8.820;2024-03-02T03:05:28;14.60;;;11.90;;
8716;SDS011;4395;48.554;8.820;2024-03-02T03:07:30;15.77;;;11.20;;
8716;SDS011;4395;48.554;8.820;2024-03-02T03:09:33;15.50;;;12.00;;
8716;SDS011;4395;48.554;8.820;2024-03-02T03:11:41;16.95;;;12.45;;
8716;SDS011;4395;48.554;8.820;2024-03-02T03:13:44;15.68;;;11.30;;
8716;SDS011;4395;48.554;8.820;2024-03-02T03:15:46;16.42;;;11.73;;
8716;SDS011;4395;48.554;8.820;2024-03-02T03:17:49;14.88;;;11.32;;
8716;SDS011;4395;48.554;8.820;2024-03-02T03:19:52;13.55;;;11.27;;
8716;SDS011;4395;48.554;8.820;2024-03-02T03:21:54;15.52;;;12.15;;
8716;SDS011;4395;48.554;8.820;2024-03-02T03:23:57;15.15;;;11.45;;
8716;SDS011;4395;48.554;8.820;2024-03-02T03:26:00;15.85;;;12.45;;
8716;SDS011;4395;48.554;8.820;2024-03-02T03:28:04;13.90;;;11.50;;
8716;SDS011;4395;48.554;8.820;2024-03-02T03:30:07;15.75;;;12.73;;
8716;SDS011;4395;48.554;8.820;2024-03-02T03:32:10;18.23;;;14.00;;
8716;SDS011;4395;48.554;8.820;2024-03-02T03:34:13;16.88;;;12.52;;
8716;SDS011;4395;48.554;8.820;2024-03-02T03:36:17;16.48;;;12.70;;
8716;SDS011;4395;48.554;8.820;2024-03-02T03:38:20;16.20;;;12.00;;
8716;SDS011;4395;48.554;8.820;2024-03-02T03:40:23;17.17;;;13.05;;
8716;SDS011;4395;48.554;8.820;2024-03-02T03:42:26;16.98;;;12.13;;
8716;SDS011;4395;48.554;8.820;2024-03-02T03:44:30;15.30;;;11.95;;
8716;SDS011;4395;48.554;8.820;2024-03-02T03:46:33;18.20;;;12.38;;
8716;SDS011;4395;48.554;8.820;2024-03-02T03:48:35;15.23;;;12.38;;
8716;SDS011;4395;48.554;8.820;2024-03-02T03:50:38;16.00;;;12.88;;
8716;SDS011;4395;48.554;8.820;2024-03-02T03:52:40;16.25;;;12.05;;
8716;SDS011;4395;48.554;8.820;2024-03-02T03:54:43;18.63;;;13.60;;
8716;SDS011;4395;48.554;8.820;2024-03-02T03:56:46;16.02;;;12.63;;
8716;SDS011;4395;48.554;8.820;2024-03-02T03:58:49;18.08;;;13.90;;
8716;SDS011;4395;48.554;8.820;2024-03-02T04:00:53;19.55;;;15.13;;
8716;SDS011;4395;48.554;8.820;2024-03-02T04:02:56;17.50;;;13.52;;
8716;SDS011;4395;48.554;8.820;2024-03-02T04:04:59;16.77;;;13.60;;
8716;SDS011;4395;48.554;8.820;2024-03-02T04:07:01;16.48;;;13.38;;
8716;SDS011;4395;48.554;8.820;2024-03-02T04:09:04;17.88;;;14.57;;
8716;SDS011;4395;48.554;8.820;2024-03-02T04:11:07;16.30;;;12.63;;
8716;SDS011;4395;48.554;8.820;2024-03-02T04:13:10;18.25;;;13.18;;
8716;SDS011;4395;48.554;8.820;2024-03-02T04:15:12;17.55;;;12.55;;
8716;SDS011;4395;48.554;8.820;2024-03-02T04:17:16;16.98;;;12.05;;
8716;SDS011;4395;48.554;8.820;2024-03-02T04:19:18;16.08;;;12.30;;
8716;SDS011;4395;48.554;8.820;2024-03-02T04:21:21;16.30;;;12.48;;
8716;SDS011;4395;48.554;8.820;2024-03-02T04:23:24;17.38;;;12.05;;
8716;SDS011;4395;48.554;8.820;2024-03-02T04:25:27;15.63;;;11.57;;
8716;SDS011;4395;48.554;8.820;2024-03-02T04:27:30;19.17;;;13.18;;
8716;SDS011;4395;48.554;8.820;2024-03-02T04:29:33;18.17;;;13.05;;
8716;SDS011;4395;48.554;8.820;2024-03-02T04:31:35;17.15;;;12.82;;
8716;SDS011;4395;48.554;8.820;2024-03-02T04:33:40;17.80;;;12.43;;
8716;SDS011;4395;48.554;8.820;2024-03-02T04:35:42;18.95;;;13.95;;
8716;SDS011;4395;48.554;8.820;2024-03-02T04:37:45;21.58;;;14.15;;
8716;SDS011;4395;48.554;8.820;2024-03-02T04:39:48;19.48;;;12.93;;
8716;SDS011;4395;48.554;8.820;2024-03-02T04:41:51;21.10;;;14.43;;
8716;SDS011;4395;48.554;8.820;2024-03-02T04:43:53;20.50;;;13.60;;
8716;SDS011;4395;48.554;8.820;2024-03-02T04:45:55;17.95;;;12.77;;
8716;SDS011;4395;48.554;8.820;2024-03-02T04:47:58;19.92;;;13.30;;
8716;SDS011;4395;48.554;8.820;2024-03-02T04:50:03;19.67;;;14.55;;
8716;SDS011;4395;48.554;8.820;2024-03-02T04:52:09;20.80;;;13.77;;
8716;SDS011;4395;48.554;8.820;2024-03-02T04:54:12;22.52;;;15.10;;
8716;SDS011;4395;48.554;8.820;2024-03-02T04:56:15;17.77;;;13.13;;
8716;SDS011;4395;48.554;8.820;2024-03-02T04:58:45;20.40;;;13.80;;
8716;SDS011;4395;48.554;8.820;2024-03-02T05:00:48;19.15;;;13.65;;
8716;SDS011;4395;48.554;8.820;2024-03-02T05:02:51;18.25;;;12.82;;
8716;SDS011;4395;48.554;8.820;2024-03-02T05:04:54;17.70;;;12.70;;
8716;SDS011;4395;48.554;8.820;2024-03-02T05:06:58;16.13;;;12.18;;
8716;SDS011;4395;48.554;8.820;2024-03-02T05:09:00;15.30;;;11.38;;
8716;SDS011;4395;48.554;8.820;2024-03-02T05:11:02;19.33;;;12.75;;
8716;SDS011;4395;48.554;8.820;2024-03-02T05:13:19;17.50;;;13.02;;
8716;SDS011;4395;48.554;8.820;2024-03-02T05:15:22;17.08;;;12.02;;
8716;SDS011;4395;48.554;8.820;2024-03-02T05:17:25;16.20;;;12.27;;
8716;SDS011;4395;48.554;8.820;2024-03-02T05:19:28;17.58;;;12.57;;
8716;SDS011;4395;48.554;8.820;2024-03-02T05:21:30;17.10;;;12.93;;
8716;SDS011;4395;48.554;8.820;2024-03-02T05:23:34;18.63;;;12.60;;
8716;SDS011;4395;48.554;8.820;2024-03-02T05:25:38;20.98;;;14.32;;
8716;SDS011;4395;48.554;8.820;2024-03-02T05:27:41;18.23;;;13.23;;
8716;SDS011;4395;48.554;8.820;2024-03-02T05:29:44;22.98;;;15.82;;
8716;SDS011;4395;48.554;8.820;2024-03-02T05:31:47;28.27;;;18.80;;
8716;SDS011;4395;48.554;8.820;2024-03-02T05:33:49;26.65;;;17.70;;
8716;SDS011;4395;48.554;8.820;2024-03-02T05:35:58;30.70;;;20.77;;
8716;SDS011;4395;48.554;8.820;2024-03-02T05:38:03;29.40;;;19.63;;
8716;SDS011;4395;48.554;8.820;2024-03-02T05:40:08;25.40;;;16.70;;
8716;SDS011;4395;48.554;8.820;2024-03-02T05:42:12;21.45;;;15.88;;
8716;SDS011;4395;48.554;8.820;2024-03-02T05:44:14;18.90;;;14.10;;
8716;SDS011;4395;48.554;8.820;2024-03-02T05:46:17;18.65;;;13.88;;
8716;SDS011;4395;48.554;8.820;2024-03-02T05:48:19;17.15;;;12.32;;
8716;SDS011;4395;48.554;8.820;2024-03-02T05:50:22;18.42;;;13.60;;
8716;SDS011;4395;48.554;8.820;2024-03-02T05:52:25;17.52;;;13.02;;
8716;SDS011;4395;48.554;8.820;2024-03-02T05:54:28;18.30;;;12.95;;
8716;SDS011;4395;48.554;8.820;2024-03-02T05:56:32;17.73;;;13.35;;
8716;SDS011;4395;48.554;8.820;2024-03-02T05:58:35;18.60;;;13.57;;
8716;SDS011;4395;48.554;8.820;2024-03-02T06:00:50;17.52;;;13.27;;
8716;SDS011;4395;48.554;8.820;2024-03-02T06:02:52;17.30;;;12.65;;
8716;SDS011;4395;48.554;8.820;2024-03-02T06:04:55;17.63;;;12.15;;
8716;SDS011;4395;48.554;8.820;2024-03-02T06:06:58;17.77;;;12.73;;
8716;SDS011;4395;48.554;8.820;2024-03-02T06:09:01;14.80;;;11.85;;
8716;SDS011;4395;48.554;8.820;2024-03-02T06:11:06;17.00;;;12.20;;
8716;SDS011;4395;48.554;8.820;2024-03-02T06:13:10;17.10;;;12.20;;
8716;SDS011;4395;48.554;8.820;2024-03-02T06:15:12;16.05;;;11.57;;
8716;SDS011;4395;48.554;8.820;2024-03-02T06:17:15;16.33;;;11.95;;
8716;SDS011;4395;48.554;8.820;2024-03-02T06:19:18;17.58;;;12.73;;
8716;SDS011;4395;48.554;8.820;2024-03-02T06:21:20;16.70;;;11.82;;
8716;SDS011;4395;48.554;8.820;2024-03-02T06:23:23;16.52;;;12.93;;
8716;SDS011;4395;48.554;8.820;2024-03-02T06:25:26;16.30;;;12.43;;
8716;SDS011;4395;48.554;8.820;2024-03-02T06:27:29;16.88;;;12.55;;
8716;SDS011;4395;48.554;8.820;2024-03-02T06:29:33;17.33;;;13.00;;
8716;SDS011;4395;48.554;8.820;2024-03-02T06:31:36;19.13;;;13.95;;
8716;SDS011;4395;48.554;8.820;2024-03-02T06:33:39;16.90;;;12.80;;
8716;SDS011;4395;48.554;8.820;2024-03-02T06:35:43;18.23;;;12.88;;
8716;SDS011;4395;48.554;8.820;2024-03-02T06:37:44;18.65;;;12.32;;
8716;SDS011;4395;48.554;8.820;2024-03-02T06:39:47;16.27;;;12.40;;
8716;SDS011;4395;48.554;8.820;2024-03-02T06:41:50;15.70;;;11.90;;
8716;SDS011;4395;48.554;8.820;2024-03-02T06:43:52;16.55;;;11.85;;
8716;SDS011;4395;48.554;8.820;2024-03-02T06:46:02;16.17;;;12.02;;
8716;SDS011;4395;48.554;8.820;2024-03-02T06:48:06;16.13;;;13.15;;
8716;SDS011;4395;48.554;8.820;2024-03-02T06:50:09;18.02;;;11.98;;
8716;SDS011;4395;48.554;8.820;2024-03-02T06:52:11;16.50;;;12.20;;
8716;SDS011;4395;48.554;8.820;2024-03-02T06:54:14;18.42;;;12.45;;
8716;SDS011;4395;48.554;8.820;2024-03-02T06:56:17;15.68;;;12.05;;
8716;SDS011;4395;48.554;8.820;2024-03-02T06:58:20;18.40;;;12.40;;
8716;SDS011;4395;48.554;8.820;2024-03-02T07:00:22;14.18;;;11.05;;
8716;SDS011;4395;48.554;8.820;2024-03-02T07:02:27;16.08;;;12.00;;
8716;SDS011;4395;48.554;8.820;2024-03-02T07:04:30;16.63;;;11.65;;
8716;SDS011;4395;48.554;8.820;2024-03-02T07:06:32;16.58;;;12.52;;
8716;SDS011;4395;48.554;8.820;2024-03-02T07:08:35;15.95;;;11.90;;
8716;SDS011;4395;48.554;8.820;2024-03-02T07:10:38;15.52;;;11.98;;
8716;SDS011;4395;48.554;8.820;2024-03-02T07:12:41;15.90;;;12.27;;
8716;SDS011;4395;48.554;8.820;2024-03-02T07:14:43;16.40;;;12.48;;
8716;SDS011;4395;48.554;8.820;2024-03-02T07:17:04;19.02;;;13.18;;
8716;SDS011;4395;48.554;8.820;2024-03-02T07:19:08;16.35;;;12.75;;
8716;SDS011;4395;48.554;8.820;2024-03-02T07:21:10;15.95;;;12.18;;
8716;SDS011;4395;48.554;8.820;2024-03-02T07:23:13;18.05;;;12.55;;
8716;SDS011;4395;48.554;8.820;2024-03-02T07:25:16;17.63;;;12.57;;
8716;SDS011;4395;48.554;8.820;2024-03-02T07:27:21;16.08;;;12.30;;
8716;SDS011;4395;48.554;8.820;2024-03-02T07:29:24;16.50;;;12.32;;
8716;SDS011;4395;48.554;8.820;2024-03-02T07:31:27;17.27;;;12.55;;
8716;SDS011;4395;48.554;8.820;2024-03-02T07:33:30;16.17;;;12.10;;
8716;SDS011;4395;48.554;8.820;2024-03-02T07:35:34;14.18;;;11.00;;
8716;SDS011;4395;48.554;8.820;2024-03-02T07:37:37;14.90;;;11.38;;
8716;SDS011;4395;48.554;8.820;2024-03-02T07:39:39;15.35;;;12.13;;
8716;SDS011;4395;48.554;8.820;2024-03-02T07:41:42;16.70;;;12.25;;
8716;SDS011;4395;48.554;8.820;2024-03-02T07:43:44;16.20;;;12.73;;
8716;SDS011;4395;48.554;8.820;2024-03-02T07:45:47;17.02;;;12.10;;
8716;SDS011;4395;48.554;8.820;2024-03-02T07:47:50;14.32;;;11.48;;
8716;SDS011;4395;48.554;8.820;2024-03-02T07:49:53;16.17;;;11.57;;
8716;SDS011;4395;48.554;8.820;2024-03-02T07:51:58;14.15;;;11.20;;
8716;SDS011;4395;48.554;8.820;2024-03-02T07:54:01;14.15;;;11.30;;
8716;SDS011;4395;48.554;8.820;2024-03-02T07:56:04;15.55;;;11.75;;
8716;SDS011;4395;48.554;8.820;2024-03-02T07:58:07;15.70;;;12.52;;
8716;SDS011;4395;48.554;8.820;2024-03-02T08:00:10;15.45;;;11.93;;
8716;SDS011;4395;48.554;8.820;2024-03-02T08:02:13;16.33;;;12.48;;
8716;SDS011;4395;48.554;8.820;2024-03-02T08:04:16;13.43;;;10.77;;
8716;SDS011;4395;48.554;8.820;2024-03-02T08:06:19;17.38;;;12.05;;
8716;SDS011;4395;48.554;8.820;2024-03-02T08:08:24;15.63;;;12.38;;
8716;SDS011;4395;48.554;8.820;2024-03-02T08:10:27;14.38;;;11.35;;
8716;SDS011;4395;48.554;8.820;2024-03-02T08:12:30;16.50;;;12.48;;
8716;SDS011;4395;48.554;8.820;2024-03-02T08:14:32;15.57;;;11.77;;
8716;SDS011;4395;48.554;8.820;2024-03-02T08:16:35;15.90;;;12.27;;
8716;SDS011;4395;48.554;8.820;2024-03-02T08:18:38;16.60;;;12.00;;
8716;SDS011;4395;48.554;8.820;2024-03-02T08:20:41;16.15;;;12.52;;
8716;SDS011;4395;48.554;8.820;2024-03-02T08:22:44;16.10;;;13.15;;
8716;SDS011;4395;48.554;8.820;2024-03-02T08:24:49;13.88;;;11.50;;
8716;SDS011;4395;48.554;8.820;2024-03-02T08:26:52;31.25;;;14.90;;
8716;SDS011;4395;48.554;8.820;2024-03-02T08:28:55;22.08;;;13.52;;
8716;SDS011;4395;48.554;8.820;2024-03-02T08:30:58;15.60;;;12.13;;
8716;SDS011;4395;48.554;8.820;2024-03-02T08:33:01;13.95;;;11.05;;
8716;SDS011;4395;48.554;8.820;2024-03-02T08:35:04;14.65;;;11.43;;
8716;SDS011;4395;48.554;8.820;2024-03-02T08:37:08;28.73;;;18.13;;
8716;SDS011;4395;48.554;8.820;2024-03-02T08:39:11;16.08;;;12.32;;
8716;SDS011;4395;48.554;8.820;2024-03-02T08:41:18;27.60;;;13.82;;
8716;SDS011;4395;48.554;8.820;2024-03-02T08:43:21;22.80;;;15.35;;
8716;SDS011;4395;48.554;8.820;2024-03-02T08:45:24;13.75;;;10.15;;
8716;SDS011;4395;48.554;8.820;2024-03-02T08:47:27;13.30;;;11.00;;
8716;SDS011;4395;48.554;8.820;2024-03-02T08:49:30;12.25;;;10.35;;
8716;SDS011;4395;48.554;8.820;2024-03-02T08:51:32;14.50;;;10.50;;
8716;SDS011;4395;48.554;8.820;2024-03-02T08:53:35;11.25;;;9.68;;
8716;SDS011;4395;48.554;8.820;2024-03-02T08:55:39;12.77;;;10.30;;
8716;SDS011;4395;48.554;8.820;2024-03-02T08:57:43;16.38;;;9.95;;
8716;SDS011;4395;48.554;8.820;2024-03-02T08:59:46;11.32;;;9.30;;
8716;SDS011;4395;48.554;8.820;2024-03-02T09:01:48;11.20;;;8.82;;
8716;SDS011;4395;48.554;8.820;2024-03-02T09:03:51;12.70;;;9.02;;
8716;SDS011;4395;48.554;8.820;2024-03-02T09:05:54;10.57;;;8.73;;
8716;SDS011;4395;48.554;8.820;2024-03-02T09:07:57;15.02;;;11.10;;
8716;SDS011;4395;48.554;8.820;2024-03-02T09:09:59;12.10;;;9.93;;
8716;SDS011;4395;48.554;8.820;2024-03-02T09:12:01;12.52;;;10.07;;
8716;SDS011;4395;48.554;8.820;2024-03-02T09:14:06;12.38;;;9.32;;
8716;SDS011;4395;48.554;8.820;2024-03-02T09:16:09;11.63;;;8.80;;
8716;SDS011;4395;48.554;8.820;2024-03-02T09:18:12;9.95;;;8.63;;
8716;SDS011;4395;48.554;8.820;2024-03-02T09:20:15;14.32;;;10.00;;
8716;SDS011;4395;48.554;8.820;2024-03-02T09:22:18;12.07;;;9.65;;
8716;SDS011;4395;48.554;8.820;2024-03-02T09:24:21;10.95;;;8.25;;
8716;SDS011;4395;48.554;8.820;2024-03-02T09:26:23;11.18;;;8.73;;
8716;SDS011;4395;48.554;8.820;2024-03-02T09:28:27;9.38;;;7.75;;
8716;SDS011;4395;48.554;8.820;2024-03-02T09:30:31;10.18;;;8.32;;
8716;SDS011;4395;48.554;8.820;2024-03-02T09:32:34;17.10;;;9.32;;
8716;SDS011;4395;48.554;8.820;2024-03-02T09:34:36;35.28;;;10.68;;
8716;SDS011;4395;48.554;8.820;2024-03-02T09:36:39;13.98;;;9.40;;
8716;SDS011;4395;48.554;8.820;2024-03-02T09:38:42;12.63;;;8.57;;
8716;SDS011;4395;48.554;8.820;2024-03-02T09:40:45;13.85;;;8.73;;
8716;SDS011;4395;48.554;8.820;2024-03-02T09:42:48;15.85;;;8.73;;
8716;SDS011;4395;48.554;8.820;2024-03-02T09:44:54;10.82;;;7.07;;
8716;SDS011;4395;48.554;8.820;2024-03-02T09:46:58;8.40;;;6.47;;
8716;SDS011;4395;48.554;8.820;2024-03-02T09:49:00;7.20;;;6.50;;
8716;SDS011;4395;48.554;8.820;2024-03-02T09:51:03;18.35;;;7.70;;
8716;SDS011;4395;48.554;8.820;2024-03-02T09:53:07;7.55;;;6.25;;
8716;SDS011;4395;48.554;8.820;2024-03-02T09:55:11;8.32;;;6.45;;
8716;SDS011;4395;48.554;8.820;2024-03-02T09:57:13;15.88;;;7.22;;
8716;SDS011;4395;48.554;8.820;2024-03-02T09:59:16;7.80;;;5.82;;
8716;SDS011;4395;48.554;8.820;2024-03-02T10:01:21;9.07;;;6.38;;
8716;SDS011;4395;48.554;8.820;2024-03-02T10:03:25;13.82;;;6.32;;
8716;SDS011;4395;48.554;8.820;2024-03-02T10:05:31;9.55;;;6.10;;
8716;SDS011;4395;48.554;8.820;2024-03-02T10:07:34;7.53;;;6.63;;
8716;SDS011;4395;48.554;8.820;2024-03-02T10:09:36;7.28;;;6.15;;
8716;SDS011;4395;48.554;8.820;2024-03-02T10:11:39;7.68;;;6.38;;
8716;SDS011;4395;48.554;8.820;2024-03-02T10:13:41;6.57;;;5.85;;
8716;SDS011;4395;48.554;8.820;2024-03-02T10:15:44;6.03;;;5.43;;
8716;SDS011;4395;48.554;8.820;2024-03-02T10:17:48;11.77;;;6.97;;
8716;SDS011;4395;48.554;8.820;2024-03-02T10:19:52;8.23;;;7.20;;
8716;SDS011;4395;48.554;8.820;2024-03-02T10:21:54;7.50;;;6.77;;
8716;SDS011;4395;48.554;8.820;2024-03-02T10:24:06;7.00;;;6.30;;
8716;SDS011;4395;48.554;8.820;2024-03-02T10:26:16;9.07;;;6.97;;
8716;SDS011;4395;48.554;8.820;2024-03-02T10:28:20;7.20;;;6.50;;
8716;SDS011;4395;48.554;8.820;2024-03-02T10:30:31;8.87;;;6.77;;
8716;SDS011;4395;48.554;8.820;2024-03-02T10:32:33;8.60;;;7.00;;
8716;SDS011;4395;48.554;8.820;2024-03-02T10:34:39;7.53;;;6.47;;
8716;SDS011;4395;48.554;8.820;2024-03-02T10:36:48;7.00;;;6.30;;
8716;SDS011;4395;48.554;8.820;2024-03-02T10:38:52;6.57;;;5.53;;
8716;SDS011;4395;48.554;8.820;2024-03-02T10:40:56;7.10;;;6.30;;
8716;SDS011;4395;48.554;8.820;2024-03-02T10:43:01;6.60;;;5.70;;
8716;SDS011;4395;48.554;8.820;2024-03-02T10:45:07;5.80;;;5.30;;
8716;SDS011;4395;48.554;8.820;2024-03-02T10:47:10;5.30;;;4.80;;
8716;SDS011;4395;48.554;8.820;2024-03-02T10:49:16;5.67;;;5.10;;
8716;SDS011;4395;48.554;8.820;2024-03-02T10:51:18;6.70;;;6.00;;
8716;SDS011;4395;48.554;8.820;2024-03-02T10:53:22;5.23;;;4.27;;
8716;SDS011;4395;48.554;8.820;2024-03-02T10:55:25;5.60;;;4.60;;
8716;SDS011;4395;48.554;8.820;2024-03-02T10:57:29;5.00;;;4.50;;
8716;SDS011;4395;48.554;8.820;2024-03-02T10:59:43;5.33;;;4.40;;
8716;SDS011;4395;48.554;8.820;2024-03-02T11:01:55;4.77;;;4.27;;
8716;SDS011;4395;48.554;8.820;2024-03-02T11:04:05;4.87;;;4.13;;
8716;SDS011;4395;48.554;8.820;2024-03-02T11:06:11;4.77;;;4.37;;
8716;SDS011;4395;48.554;8.820;2024-03-02T11:08:16;4.63;;;3.87;;
8716;SDS011;4395;48.554;8.820;2024-03-02T11:10:23;3.80;;;3.40;;
8716;SDS011;4395;48.554;8.820;2024-03-02T11:12:28;3.90;;;3.57;;
8716;SDS011;4395;48.554;8.820;2024-03-02T11:14:34;4.57;;;4.17;;
8716;SDS011;4395;48.554;8.820;2024-03-02T11:16:41;5.03;;;3.70;;
8716;SDS011;4395;48.554;8.820;2024-03-02T11:18:45;4.87;;;4.37;;
8716;SDS011;4395;48.554;8.820;2024-03-02T11:20:50;5.47;;;4.20;;
8716;SDS011;4395;48.554;8.820;2024-03-02T11:22:54;4.50;;;4.10;;
8716;SDS011;4395;48.554;8.820;2024-03-02T11:24:55;5.27;;;4.03;;
8716;SDS011;4395;48.554;8.820;2024-03-02T11:27:00;5.50;;;3.97;;
8716;SDS011;4395;48.554;8.820;2024-03-02T11:29:02;5.33;;;4.43;;
8716;SDS011;4395;48.554;8.820;2024-03-02T11:31:05;4.20;;;3.80;;
8716;SDS011;4395;48.554;8.820;2024-03-02T11:33:07;4.57;;;3.73;;
8716;SDS011;4395;48.554;8.820;2024-03-02T11:35:13;4.83;;;4.30;;
8716;SDS011;4395;48.554;8.820;2024-03-02T11:37:17;5.17;;;3.80;;
8716;SDS011;4395;48.554;8.820;2024-03-02T11:39:21;4.63;;;4.13;;
8716;SDS011;4395;48.554;8.820;2024-03-02T11:41:24;5.27;;;4.20;;
8716;SDS011;4395;48.554;8.820;2024-03-02T11:43:29;5.20;;;4.07;;
8716;SDS011;4395;48.554;8.820;2024-03-02T11:45:35;5.77;;;3.80;;
8716;SDS011;4395;48.554;8.820;2024-03-02T11:47:41;5.43;;;3.97;;
8716;SDS011;4395;48.554;8.820;2024-03-02T11:49:52;6.50;;;2.97;;
8716;SDS011;4395;48.554;8.820;2024-03-02T11:52:00;4.77;;;3.33;;
8716;SDS011;4395;48.554;8.820;2024-03-02T11:54:03;4.28;;;3.88;;
8716;SDS011;4395;48.554;8.820;2024-03-02T11:56:09;3.47;;;3.17;;
8716;SDS011;4395;48.554;8.820;2024-03-02T11:58:13;4.77;;;3.70;;
8716;SDS011;4395;48.554;8.820;2024-03-02T12:00:20;3.90;;;3.50;;
8716;SDS011;4395;48.554;8.820;2024-03-02T12:02:23;6.10;;;4.10;;
8716;SDS011;4395;48.554;8.820;2024-03-02T12:04:27;4.00;;;3.33;;
8716;SDS011;4395;48.554;8.820;2024-03-02T12:06:32;3.80;;;3.40;;
8716;SDS011;4395;48.554;8.820;2024-03-02T12:08:35;3.60;;;3.30;;
8716;SDS011;4395;48.554;8.820;2024-03-02T12:10:39;3.33;;;3.03;;
8716;SDS011;4395;48.554;8.820;2024-03-02T12:12:41;3.47;;;2.60;;
8716;SDS011;4395;48.554;8.820;2024-03-02T12:14:49;3.23;;;2.93;;
8716;SDS011;4395;48.554;8.820;2024-03-02T12:16:55;3.20;;;2.90;;
8716;SDS011;4395;48.554;8.820;2024-03-02T12:19:00;3.80;;;3.50;;
8716;SDS011;4395;48.554;8.820;2024-03-02T12:21:03;3.03;;;2.73;;
8716;SDS011;4395;48.554;8.820;2024-03-02T12:23:08;4.10;;;2.40;;
8716;SDS011;4395;48.554;8.820;2024-03-02T12:25:12;4.47;;;2.60;;
8716;SDS011;4395;48.554;8.820;2024-03-02T12:27:16;8.17;;;3.47;;
8716;SDS011;4395;48.554;8.820;2024-03-02T12:29:22;5.03;;;2.90;;
8716;SDS011;4395;48.554;8.820;2024-03-02T12:31:25;3.83;;;2.80;;
8716;SDS011;4395;48.554;8.820;2024-03-02T12:33:29;3.27;;;2.30;;